sensor_id;sensor_type;location;lat;lon;timestamp;P1;durP1;ratioP1;P2;durP2;ratioP2
12703;SDS011;6416;52.182;7.650;2023-12-20T00:02:20;3.00;;;2.13;;
12703;SDS011;6416;52.182;7.650;2023-12-20T00:04:45;5.23;;;2.43;;
12703;SDS011;6416;52.182;7.650;2023-12-20T00:07:11;4.67;;;2.60;;
12703;SDS011;6416;52.182;7.650;2023-12-20T00:09:36;3.73;;;2.40;;
12703;SDS011;6416;52.182;7.650;2023-12-20T00:12:02;7.00;;;2.93;;
12703;SDS011;6416;52.182;7.650;2023-12-20T00:14:27;4.80;;;2.83;;
12703;SDS011;6416;52.182;7.650;2023-12-20T00:16:53;6.27;;;3.10;;
12703;SDS011;6416;52.182;7.650;2023-12-20T00:19:18;3.67;;;2.50;;
12703;SDS011;6416;52.182;7.650;2023-12-20T00:21:44;4.63;;;2.80;;
12703;SDS011;6416;52.182;7.650;2023-12-20T00:24:09;4.73;;;2.73;;
12703;SDS011;6416;52.182;7.650;2023-12-20T00:26:35;2.80;;;2.00;;
12703;SDS011;6416;52.182;7.650;2023-12-20T00:29:00;5.20;;;2.43;;
12703;SDS011;6416;52.182;7.650;2023-12-20T00:31:25;4.53;;;2.47;;
12703;SDS011;6416;52.182;7.650;2023-12-20T00:33:51;4.47;;;2.57;;
12703;SDS011;6416;52.182;7.650;2023-12-20T00:36:16;3.90;;;2.83;;
12703;SDS011;6416;52.182;7.650;2023-12-20T00:38:42;5.20;;;2.83;;
12703;SDS011;6416;52.182;7.650;2023-12-20T00:41:07;5.37;;;2.90;;
12703;SDS011;6416;52.182;7.650;2023-12-20T00:43:33;6.60;;;2.83;;
12703;SDS011;6416;52.182;7.650;2023-12-20T00:45:58;4.27;;;2.77;;
12703;SDS011;6416;52.182;7.650;2023-12-20T00:48:24;4.30;;;2.77;;
12703;SDS011;6416;52.182;7.650;2023-12-20T00:50:49;4.10;;;2.67;;
12703;SDS011;6416;52.182;7.650;2023-12-20T00:53:15;4.60;;;2.77;;
12703;SDS011;6416;52.182;7.650;2023-12-20T00:55:40;4.37;;;2.40;;
12703;SDS011;6416;52.182;7.650;2023-12-20T00:58:05;6.07;;;2.60;;
12703;SDS011;6416;52.182;7.650;2023-12-20T01:00:31;5.60;;;3.57;;
12703;SDS011;6416;52.182;7.650;2023-12-20T01:02:56;4.23;;;2.30;;
12703;SDS011;6416;52.182;7.650;2023-12-20T01:05:22;4.70;;;2.63;;
12703;SDS011;6416;52.182;7.650;2023-12-20T01:07:47;3.93;;;2.70;;
12703;SDS011;6416;52.182;7.650;2023-12-20T01:10:13;7.83;;;2.70;;
12703;SDS011;6416;52.182;7.650;2023-12-20T01:12:38;4.73;;;2.47;;
12703;SDS011;6416;52.182;7.650;2023-12-20T01:15:04;4.03;;;2.20;;
12703;SDS011;6416;52.182;7.650;2023-12-20T01:17:30;4.73;;;2.30;;
12703;SDS011;6416;52.182;7.650;2023-12-20T01:19:55;4.27;;;2.30;;
12703;SDS011;6416;52.182;7.650;2023-12-20T01:22:21;3.50;;;2.50;;
12703;SDS011;6416;52.182;7.650;2023-12-20T01:24:46;3.30;;;1.90;;
12703;SDS011;6416;52.182;7.650;2023-12-20T01:27:11;3.33;;;2.30;;
12703;SDS011;6416;52.182;7.650;2023-12-20T01:29:37;4.60;;;2.30;;
12703;SDS011;6416;52.182;7.650;2023-12-20T01:32:02;3.30;;;1.93;;
12703;SDS011;6416;52.182;7.650;2023-12-20T01:34:28;4.33;;;2.10;;
12703;SDS011;6416;52.182;7.650;2023-12-20T01:36:54;6.73;;;2.80;;
12703;SDS011;6416;52.182;7.650;2023-12-20T01:39:19;3.10;;;2.30;;
12703;SDS011;6416;52.182;7.650;2023-12-20T01:41:44;5.17;;;2.40;;
12703;SDS011;6416;52.182;7.650;2023-12-20T01:44:10;3.80;;;2.50;;
12703;SDS011;6416;52.182;7.650;2023-12-20T01:46:35;3.83;;;2.33;;
12703;SDS011;6416;52.182;7.650;2023-12-20T01:49:01;4.93;;;3.10;;
12703;SDS011;6416;52.182;7.650;2023-12-20T01:51:27;4.27;;;2.50;;
12703;SDS011;6416;52.182;7.650;2023-12-20T01:53:53;7.87;;;2.40;;
12703;SDS011;6416;52.182;7.650;2023-12-20T01:56:21;4.63;;;2.60;;
12703;SDS011;6416;52.182;7.650;2023-12-20T01:58:47;6.13;;;2.60;;
12703;SDS011;6416;52.182;7.650;2023-12-20T02:01:13;5.07;;;2.57;;
12703;SDS011;6416;52.182;7.650;2023-12-20T02:03:41;4.40;;;2.40;;
12703;SDS011;6416;52.182;7.650;2023-12-20T02:06:07;4.97;;;2.80;;
12703;SDS011;6416;52.182;7.650;2023-12-20T02:08:34;5.87;;;2.60;;
12703;SDS011;6416;52.182;7.650;2023-12-20T02:10:59;5.60;;;2.73;;
12703;SDS011;6416;52.182;7.650;2023-12-20T02:13:25;7.73;;;2.87;;
12703;SDS011;6416;52.182;7.650;2023-12-20T02:15:50;6.80;;;2.87;;
12703;SDS011;6416;52.182;7.650;2023-12-20T02:18:16;8.47;;;3.20;;
12703;SDS011;6416;52.182;7.650;2023-12-20T02:20:41;6.07;;;3.17;;
12703;SDS011;6416;52.182;7.650;2023-12-20T02:23:07;6.20;;;2.90;;
12703;SDS011;6416;52.182;7.650;2023-12-20T02:25:33;4.70;;;2.80;;
12703;SDS011;6416;52.182;7.650;2023-12-20T02:27:58;7.73;;;3.33;;
12703;SDS011;6416;52.182;7.650;2023-12-20T02:30:24;6.07;;;3.10;;
12703;SDS011;6416;52.182;7.650;2023-12-20T02:32:49;6.67;;;3.00;;
12703;SDS011;6416;52.182;7.650;2023-12-20T02:35:16;6.13;;;3.63;;
12703;SDS011;6416;52.182;7.650;2023-12-20T02:37:41;7.97;;;3.63;;
12703;SDS011;6416;52.182;7.650;2023-12-20T02:40:07;6.43;;;3.50;;
12703;SDS011;6416;52.182;7.650;2023-12-20T02:42:32;7.63;;;4.40;;
12703;SDS011;6416;52.182;7.650;2023-12-20T02:44:58;7.27;;;3.33;;
12703;SDS011;6416;52.182;7.650;2023-12-20T02:47:23;4.53;;;3.30;;
12703;SDS011;6416;52.182;7.650;2023-12-20T02:49:49;8.00;;;3.20;;
12703;SDS011;6416;52.182;7.650;2023-12-20T02:52:14;6.10;;;3.27;;
12703;SDS011;6416;52.182;7.650;2023-12-20T02:54:40;7.47;;;3.40;;
12703;SDS011;6416;52.182;7.650;2023-12-20T02:57:05;9.83;;;4.40;;
12703;SDS011;6416;52.182;7.650;2023-12-20T02:59:31;8.03;;;3.53;;
12703;SDS011;6416;52.182;7.650;2023-12-20T03:01:56;6.07;;;3.27;;
12703;SDS011;6416;52.182;7.650;2023-12-20T03:04:22;6.80;;;2.90;;
12703;SDS011;6416;52.182;7.650;2023-12-20T03:06:47;8.20;;;3.67;;
12703;SDS011;6416;52.182;7.650;2023-12-20T03:09:13;9.13;;;3.27;;
12703;SDS011;6416;52.182;7.650;2023-12-20T03:11:38;7.43;;;3.00;;
12703;SDS011;6416;52.182;7.650;2023-12-20T03:14:04;8.60;;;3.10;;
12703;SDS011;6416;52.182;7.650;2023-12-20T03:16:29;7.43;;;3.43;;
12703;SDS011;6416;52.182;7.650;2023-12-20T03:18:55;5.20;;;2.70;;
12703;SDS011;6416;52.182;7.650;2023-12-20T03:21:20;4.73;;;2.33;;
12703;SDS011;6416;52.182;7.650;2023-12-20T03:23:46;5.83;;;3.03;;
12703;SDS011;6416;52.182;7.650;2023-12-20T03:26:11;7.33;;;2.67;;
12703;SDS011;6416;52.182;7.650;2023-12-20T03:28:36;5.47;;;2.27;;
12703;SDS011;6416;52.182;7.650;2023-12-20T03:31:02;5.60;;;2.30;;
12703;SDS011;6416;52.182;7.650;2023-12-20T03:33:28;7.30;;;2.57;;
12703;SDS011;6416;52.182;7.650;2023-12-20T03:35:54;7.17;;;2.43;;
12703;SDS011;6416;52.182;7.650;2023-12-20T03:38:20;4.97;;;2.37;;
12703;SDS011;6416;52.182;7.650;2023-12-20T03:40:46;7.73;;;2.40;;
12703;SDS011;6416;52.182;7.650;2023-12-20T03:43:11;4.37;;;2.10;;
12703;SDS011;6416;52.182;7.650;2023-12-20T03:45:36;7.87;;;2.67;;
12703;SDS011;6416;52.182;7.650;2023-12-20T03:48:02;8.13;;;2.70;;
12703;SDS011;6416;52.182;7.650;2023-12-20T03:50:28;8.53;;;2.30;;
12703;SDS011;6416;52.182;7.650;2023-12-20T03:52:54;6.93;;;2.70;;
12703;SDS011;6416;52.182;7.650;2023-12-20T03:55:19;7.80;;;2.30;;
12703;SDS011;6416;52.182;7.650;2023-12-20T03:57:46;5.60;;;2.50;;
12703;SDS011;6416;52.182;7.650;2023-12-20T04:00:12;9.10;;;2.63;;
12703;SDS011;6416;52.182;7.650;2023-12-20T04:02:38;6.73;;;2.70;;
12703;SDS011;6416;52.182;7.650;2023-12-20T04:05:04;6.10;;;1.80;;
12703;SDS011;6416;52.182;7.650;2023-12-20T04:07:29;8.10;;;2.30;;
12703;SDS011;6416;52.182;7.650;2023-12-20T04:09:55;6.73;;;2.87;;
12703;SDS011;6416;52.182;7.650;2023-12-20T04:12:20;9.80;;;2.70;;
12703;SDS011;6416;52.182;7.650;2023-12-20T04:14:46;7.17;;;2.40;;
12703;SDS011;6416;52.182;7.650;2023-12-20T04:17:11;6.33;;;2.40;;
12703;SDS011;6416;52.182;7.650;2023-12-20T04:19:37;9.37;;;2.40;;
12703;SDS011;6416;52.182;7.650;2023-12-20T04:22:02;8.03;;;2.40;;
12703;SDS011;6416;52.182;7.650;2023-12-20T04:24:28;6.53;;;2.30;;
12703;SDS011;6416;52.182;7.650;2023-12-20T04:26:53;6.47;;;3.00;;
12703;SDS011;6416;52.182;7.650;2023-12-20T04:29:19;8.30;;;2.60;;
12703;SDS011;6416;52.182;7.650;2023-12-20T04:31:44;8.37;;;2.80;;
12703;SDS011;6416;52.182;7.650;2023-12-20T04:34:10;6.37;;;2.50;;
12703;SDS011;6416;52.182;7.650;2023-12-20T04:36:35;11.80;;;2.57;;
12703;SDS011;6416;52.182;7.650;2023-12-20T04:39:01;10.17;;;2.67;;
12703;SDS011;6416;52.182;7.650;2023-12-20T04:41:26;6.23;;;2.27;;
12703;SDS011;6416;52.182;7.650;2023-12-20T04:43:52;7.17;;;2.80;;
12703;SDS011;6416;52.182;7.650;2023-12-20T04:46:19;8.20;;;2.20;;
12703;SDS011;6416;52.182;7.650;2023-12-20T04:48:44;5.27;;;2.17;;
12703;SDS011;6416;52.182;7.650;2023-12-20T04:51:09;8.27;;;2.70;;
12703;SDS011;6416;52.182;7.650;2023-12-20T04:53:35;10.50;;;2.97;;
12703;SDS011;6416;52.182;7.650;2023-12-20T04:56:00;8.83;;;3.07;;
12703;SDS011;6416;52.182;7.650;2023-12-20T04:58:26;8.50;;;2.57;;
12703;SDS011;6416;52.182;7.650;2023-12-20T05:00:51;11.17;;;2.90;;
12703;SDS011;6416;52.182;7.650;2023-12-20T05:03:17;7.50;;;2.93;;
12703;SDS011;6416;52.182;7.650;2023-12-20T05:05:42;8.83;;;3.00;;
12703;SDS011;6416;52.182;7.650;2023-12-20T05:08:08;6.00;;;2.70;;
12703;SDS011;6416;52.182;7.650;2023-12-20T05:10:33;8.67;;;3.10;;
12703;SDS011;6416;52.182;7.650;2023-12-20T05:12:59;9.83;;;3.23;;
12703;SDS011;6416;52.182;7.650;2023-12-20T05:15:24;9.43;;;3.50;;
12703;SDS011;6416;52.182;7.650;2023-12-20T05:17:50;9.97;;;3.60;;
12703;SDS011;6416;52.182;7.650;2023-12-20T05:20:15;6.90;;;3.10;;
12703;SDS011;6416;52.182;7.650;2023-12-20T05:22:41;10.83;;;3.03;;
12703;SDS011;6416;52.182;7.650;2023-12-20T05:25:06;6.17;;;2.73;;
12703;SDS011;6416;52.182;7.650;2023-12-20T05:27:33;9.43;;;3.57;;
12703;SDS011;6416;52.182;7.650;2023-12-20T05:29:58;10.23;;;3.30;;
12703;SDS011;6416;52.182;7.650;2023-12-20T05:32:23;10.30;;;3.67;;
12703;SDS011;6416;52.182;7.650;2023-12-20T05:34:49;9.23;;;3.30;;
12703;SDS011;6416;52.182;7.650;2023-12-20T05:37:14;8.47;;;3.57;;
12703;SDS011;6416;52.182;7.650;2023-12-20T05:39:40;10.83;;;3.83;;
12703;SDS011;6416;52.182;7.650;2023-12-20T05:42:05;8.37;;;3.27;;
12703;SDS011;6416;52.182;7.650;2023-12-20T05:44:31;11.80;;;3.40;;
12703;SDS011;6416;52.182;7.650;2023-12-20T05:46:56;10.93;;;3.50;;
12703;SDS011;6416;52.182;7.650;2023-12-20T05:49:22;8.67;;;3.30;;
12703;SDS011;6416;52.182;7.650;2023-12-20T05:51:47;8.60;;;3.40;;
12703;SDS011;6416;52.182;7.650;2023-12-20T05:54:13;11.33;;;3.57;;
12703;SDS011;6416;52.182;7.650;2023-12-20T05:56:38;10.90;;;3.53;;
12703;SDS011;6416;52.182;7.650;2023-12-20T05:59:04;14.10;;;4.33;;
12703;SDS011;6416;52.182;7.650;2023-12-20T06:01:29;10.70;;;4.70;;
12703;SDS011;6416;52.182;7.650;2023-12-20T06:03:55;10.73;;;3.60;;
12703;SDS011;6416;52.182;7.650;2023-12-20T06:06:20;10.93;;;3.80;;
12703;SDS011;6416;52.182;7.650;2023-12-20T06:08:46;8.77;;;3.30;;
12703;SDS011;6416;52.182;7.650;2023-12-20T06:11:11;8.00;;;3.57;;
12703;SDS011;6416;52.182;7.650;2023-12-20T06:13:37;11.03;;;3.50;;
12703;SDS011;6416;52.182;7.650;2023-12-20T06:16:04;10.33;;;3.73;;
12703;SDS011;6416;52.182;7.650;2023-12-20T06:18:30;7.67;;;3.37;;
12703;SDS011;6416;52.182;7.650;2023-12-20T06:20:56;16.93;;;3.67;;
12703;SDS011;6416;52.182;7.650;2023-12-20T06:23:22;11.30;;;3.73;;
12703;SDS011;6416;52.182;7.650;2023-12-20T06:25:47;10.30;;;3.40;;
12703;SDS011;6416;52.182;7.650;2023-12-20T06:28:13;6.90;;;3.17;;
12703;SDS011;6416;52.182;7.650;2023-12-20T06:30:38;10.27;;;3.60;;
12703;SDS011;6416;52.182;7.650;2023-12-20T06:33:04;11.60;;;3.80;;
12703;SDS011;6416;52.182;7.650;2023-12-20T06:35:29;7.97;;;3.43;;
12703;SDS011;6416;52.182;7.650;2023-12-20T06:37:55;8.83;;;3.30;;
12703;SDS011;6416;52.182;7.650;2023-12-20T06:40:20;8.80;;;3.63;;
12703;SDS011;6416;52.182;7.650;2023-12-20T06:42:46;8.80;;;2.93;;
12703;SDS011;6416;52.182;7.650;2023-12-20T06:45:11;9.87;;;3.40;;
12703;SDS011;6416;52.182;7.650;2023-12-20T06:47:37;12.23;;;3.23;;
12703;SDS011;6416;52.182;7.650;2023-12-20T06:50:03;7.87;;;2.87;;
12703;SDS011;6416;52.182;7.650;2023-12-20T06:52:28;10.10;;;3.73;;
12703;SDS011;6416;52.182;7.650;2023-12-20T06:54:54;9.40;;;3.20;;
12703;SDS011;6416;52.182;7.650;2023-12-20T06:57:19;9.90;;;2.90;;
12703;SDS011;6416;52.182;7.650;2023-12-20T06:59:45;7.70;;;3.20;;
12703;SDS011;6416;52.182;7.650;2023-12-20T07:02:11;11.07;;;3.20;;
12703;SDS011;6416;52.182;7.650;2023-12-20T07:04:40;10.30;;;3.50;;
12703;SDS011;6416;52.182;7.650;2023-12-20T07:07:06;9.53;;;3.10;;
12703;SDS011;6416;52.182;7.650;2023-12-20T07:09:31;7.20;;;2.50;;
12703;SDS011;6416;52.182;7.650;2023-12-20T07:11:57;6.87;;;3.17;;
12703;SDS011;6416;52.182;7.650;2023-12-20T07:14:22;10.00;;;3.50;;
12703;SDS011;6416;52.182;7.650;2023-12-20T07:16:48;12.30;;;3.03;;
12703;SDS011;6416;52.182;7.650;2023-12-20T07:19:16;11.20;;;3.00;;
12703;SDS011;6416;52.182;7.650;2023-12-20T07:21:58;10.00;;;2.80;;
12703;SDS011;6416;52.182;7.650;2023-12-20T07:24:24;10.80;;;3.93;;
12703;SDS011;6416;52.182;7.650;2023-12-20T07:26:49;13.07;;;3.07;;
12703;SDS011;6416;52.182;7.650;2023-12-20T07:29:15;10.70;;;3.00;;
12703;SDS011;6416;52.182;7.650;2023-12-20T07:31:40;9.13;;;3.03;;
12703;SDS011;6416;52.182;7.650;2023-12-20T07:34:06;13.93;;;3.70;;
12703;SDS011;6416;52.182;7.650;2023-12-20T07:36:31;10.20;;;2.73;;
12703;SDS011;6416;52.182;7.650;2023-12-20T07:38:57;10.43;;;3.27;;
12703;SDS011;6416;52.182;7.650;2023-12-20T07:41:26;9.77;;;3.17;;
12703;SDS011;6416;52.182;7.650;2023-12-20T07:43:51;10.33;;;3.33;;
12703;SDS011;6416;52.182;7.650;2023-12-20T07:46:17;10.87;;;3.23;;
12703;SDS011;6416;52.182;7.650;2023-12-20T07:48:42;10.47;;;2.97;;
12703;SDS011;6416;52.182;7.650;2023-12-20T07:51:08;8.47;;;2.60;;
12703;SDS011;6416;52.182;7.650;2023-12-20T07:53:33;7.50;;;3.13;;
12703;SDS011;6416;52.182;7.650;2023-12-20T07:55:59;10.87;;;3.33;;
12703;SDS011;6416;52.182;7.650;2023-12-20T07:58:24;8.07;;;2.53;;
12703;SDS011;6416;52.182;7.650;2023-12-20T08:00:50;13.00;;;3.53;;
12703;SDS011;6416;52.182;7.650;2023-12-20T08:03:15;11.50;;;3.23;;
12703;SDS011;6416;52.182;7.650;2023-12-20T08:05:41;11.50;;;3.53;;
12703;SDS011;6416;52.182;7.650;2023-12-20T08:08:06;10.30;;;3.27;;
12703;SDS011;6416;52.182;7.650;2023-12-20T08:10:32;15.27;;;3.93;;
12703;SDS011;6416;52.182;7.650;2023-12-20T08:12:57;11.50;;;3.70;;
12703;SDS011;6416;52.182;7.650;2023-12-20T08:15:23;6.70;;;2.73;;
12703;SDS011;6416;52.182;7.650;2023-12-20T08:17:49;12.03;;;3.13;;
12703;SDS011;6416;52.182;7.650;2023-12-20T08:20:14;12.50;;;3.07;;
12703;SDS011;6416;52.182;7.650;2023-12-20T08:22:40;11.53;;;4.20;;
12703;SDS011;6416;52.182;7.650;2023-12-20T08:25:05;7.93;;;3.77;;
12703;SDS011;6416;52.182;7.650;2023-12-20T08:27:38;9.27;;;2.97;;
12703;SDS011;6416;52.182;7.650;2023-12-20T08:30:06;9.03;;;3.77;;
12703;SDS011;6416;52.182;7.650;2023-12-20T08:32:33;11.93;;;3.80;;
12703;SDS011;6416;52.182;7.650;2023-12-20T08:34:58;10.63;;;3.60;;
12703;SDS011;6416;52.182;7.650;2023-12-20T08:37:24;11.43;;;3.43;;
12703;SDS011;6416;52.182;7.650;2023-12-20T08:39:49;11.23;;;3.50;;
12703;SDS011;6416;52.182;7.650;2023-12-20T08:42:15;11.93;;;3.83;;
12703;SDS011;6416;52.182;7.650;2023-12-20T08:44:40;11.57;;;4.37;;
12703;SDS011;6416;52.182;7.650;2023-12-20T08:47:05;11.93;;;3.50;;
12703;SDS011;6416;52.182;7.650;2023-12-20T08:49:31;11.53;;;4.00;;
12703;SDS011;6416;52.182;7.650;2023-12-20T08:51:56;19.47;;;4.50;;
12703;SDS011;6416;52.182;7.650;2023-12-20T08:54:22;13.27;;;4.00;;
12703;SDS011;6416;52.182;7.650;2023-12-20T08:56:47;8.93;;;3.67;;
12703;SDS011;6416;52.182;7.650;2023-12-20T08:59:13;8.30;;;3.37;;
12703;SDS011;6416;52.182;7.650;2023-12-20T09:01:38;9.53;;;3.37;;
12703;SDS011;6416;52.182;7.650;2023-12-20T09:04:04;12.80;;;4.40;;
12703;SDS011;6416;52.182;7.650;2023-12-20T09:06:29;10.63;;;3.30;;
12703;SDS011;6416;52.182;7.650;2023-12-20T09:08:55;9.17;;;3.57;;
12703;SDS011;6416;52.182;7.650;2023-12-20T09:11:20;13.53;;;3.97;;
12703;SDS011;6416;52.182;7.650;2023-12-20T09:13:46;9.83;;;3.57;;
12703;SDS011;6416;52.182;7.650;2023-12-20T09:16:11;10.57;;;3.83;;
12703;SDS011;6416;52.182;7.650;2023-12-20T09:18:37;10.67;;;3.87;;
12703;SDS011;6416;52.182;7.650;2023-12-20T09:21:02;12.00;;;4.03;;
12703;SDS011;6416;52.182;7.650;2023-12-20T09:23:28;8.47;;;3.90;;
12703;SDS011;6416;52.182;7.650;2023-12-20T09:25:53;13.83;;;4.00;;
12703;SDS011;6416;52.182;7.650;2023-12-20T09:28:22;6.77;;;3.77;;
12703;SDS011;6416;52.182;7.650;2023-12-20T09:30:48;9.70;;;3.77;;
12703;SDS011;6416;52.182;7.650;2023-12-20T09:33:14;15.37;;;4.90;;
12703;SDS011;6416;52.182;7.650;2023-12-20T09:35:39;9.47;;;3.60;;
12703;SDS011;6416;52.182;7.650;2023-12-20T09:38:05;10.70;;;4.40;;
12703;SDS011;6416;52.182;7.650;2023-12-20T09:40:30;9.77;;;3.97;;
12703;SDS011;6416;52.182;7.650;2023-12-20T09:42:58;8.80;;;3.37;;
12703;SDS011;6416;52.182;7.650;2023-12-20T09:45:28;10.37;;;3.80;;
12703;SDS011;6416;52.182;7.650;2023-12-20T09:47:56;11.53;;;3.63;;
12703;SDS011;6416;52.182;7.650;2023-12-20T09:50:23;9.83;;;3.47;;
12703;SDS011;6416;52.182;7.650;2023-12-20T09:52:52;11.80;;;3.67;;
12703;SDS011;6416;52.182;7.650;2023-12-20T09:55:21;13.67;;;3.87;;
12703;SDS011;6416;52.182;7.650;2023-12-20T09:57:46;9.33;;;3.73;;
12703;SDS011;6416;52.182;7.650;2023-12-20T10:00:13;8.77;;;3.40;;
12703;SDS011;6416;52.182;7.650;2023-12-20T10:02:41;9.33;;;3.47;;
12703;SDS011;6416;52.182;7.650;2023-12-20T10:05:10;9.93;;;3.03;;
12703;SDS011;6416;52.182;7.650;2023-12-20T10:07:41;9.73;;;3.50;;
12703;SDS011;6416;52.182;7.650;2023-12-20T10:10:07;10.80;;;3.63;;
12703;SDS011;6416;52.182;7.650;2023-12-20T10:12:32;8.20;;;2.90;;
12703;SDS011;6416;52.182;7.650;2023-12-20T10:14:58;6.87;;;3.00;;
12703;SDS011;6416;52.182;7.650;2023-12-20T10:17:23;9.63;;;3.43;;
12703;SDS011;6416;52.182;7.650;2023-12-20T10:19:49;7.93;;;3.00;;
12703;SDS011;6416;52.182;7.650;2023-12-20T10:22:14;7.27;;;3.10;;
12703;SDS011;6416;52.182;7.650;2023-12-20T10:24:40;9.47;;;3.20;;
12703;SDS011;6416;52.182;7.650;2023-12-20T10:27:07;10.60;;;3.30;;
12703;SDS011;6416;52.182;7.650;2023-12-20T10:29:36;7.93;;;3.30;;
12703;SDS011;6416;52.182;7.650;2023-12-20T10:32:24;10.07;;;3.20;;
12703;SDS011;6416;52.182;7.650;2023-12-20T10:34:48;7.20;;;3.23;;
12703;SDS011;6416;52.182;7.650;2023-12-20T10:37:13;7.30;;;3.23;;
12703;SDS011;6416;52.182;7.650;2023-12-20T10:39:39;7.33;;;3.30;;
12703;SDS011;6416;52.182;7.650;2023-12-20T10:42:07;11.13;;;3.30;;
12703;SDS011;6416;52.182;7.650;2023-12-20T10:44:34;7.67;;;3.53;;
12703;SDS011;6416;52.182;7.650;2023-12-20T10:47:00;7.43;;;3.10;;
12703;SDS011;6416;52.182;7.650;2023-12-20T10:49:26;7.20;;;3.37;;
12703;SDS011;6416;52.182;7.650;2023-12-20T10:51:53;6.77;;;3.27;;
12703;SDS011;6416;52.182;7.650;2023-12-20T10:54:20;9.07;;;3.13;;
12703;SDS011;6416;52.182;7.650;2023-12-20T10:56:45;8.97;;;3.13;;
12703;SDS011;6416;52.182;7.650;2023-12-20T10:59:12;5.90;;;3.10;;
12703;SDS011;6416;52.182;7.650;2023-12-20T11:01:43;8.00;;;3.30;;
12703;SDS011;6416;52.182;7.650;2023-12-20T11:04:10;8.87;;;3.20;;
12703;SDS011;6416;52.182;7.650;2023-12-20T11:06:51;5.63;;;2.97;;
12703;SDS011;6416;52.182;7.650;2023-12-20T11:09:24;7.13;;;2.90;;
12703;SDS011;6416;52.182;7.650;2023-12-20T11:11:59;8.20;;;2.93;;
12703;SDS011;6416;52.182;7.650;2023-12-20T11:14:33;10.37;;;3.20;;
12703;SDS011;6416;52.182;7.650;2023-12-20T11:17:11;9.47;;;3.23;;
12703;SDS011;6416;52.182;7.650;2023-12-20T11:19:38;6.70;;;3.20;;
12703;SDS011;6416;52.182;7.650;2023-12-20T11:22:27;8.43;;;3.33;;
12703;SDS011;6416;52.182;7.650;2023-12-20T11:24:58;8.67;;;3.07;;
12703;SDS011;6416;52.182;7.650;2023-12-20T11:27:32;6.60;;;3.10;;
12703;SDS011;6416;52.182;7.650;2023-12-20T11:29:58;7.20;;;3.43;;
12703;SDS011;6416;52.182;7.650;2023-12-20T11:34:59;5.77;;;2.93;;
12703;SDS011;6416;52.182;7.650;2023-12-20T11:37:37;5.57;;;2.90;;
12703;SDS011;6416;52.182;7.650;2023-12-20T11:40:05;7.57;;;2.93;;
12703;SDS011;6416;52.182;7.650;2023-12-20T11:42:38;11.73;;;3.40;;
12703;SDS011;6416;52.182;7.650;2023-12-20T11:45:04;10.57;;;3.20;;
12703;SDS011;6416;52.182;7.650;2023-12-20T11:47:30;7.07;;;3.13;;
12703;SDS011;6416;52.182;7.650;2023-12-20T11:49:56;9.57;;;3.20;;
12703;SDS011;6416;52.182;7.650;2023-12-20T11:52:22;10.80;;;3.17;;
12703;SDS011;6416;52.182;7.650;2023-12-20T11:54:47;12.10;;;3.33;;
12703;SDS011;6416;52.182;7.650;2023-12-20T11:57:13;10.10;;;3.10;;
12703;SDS011;6416;52.182;7.650;2023-12-20T11:59:39;6.97;;;3.07;;
12703;SDS011;6416;52.182;7.650;2023-12-20T12:02:04;9.23;;;2.70;;
12703;SDS011;6416;52.182;7.650;2023-12-20T12:04:30;9.03;;;2.87;;
12703;SDS011;6416;52.182;7.650;2023-12-20T12:06:55;6.23;;;2.67;;
12703;SDS011;6416;52.182;7.650;2023-12-20T12:09:21;9.37;;;3.67;;
12703;SDS011;6416;52.182;7.650;2023-12-20T12:11:46;10.23;;;3.40;;
12703;SDS011;6416;52.182;7.650;2023-12-20T12:14:12;4.63;;;2.20;;
12703;SDS011;6416;52.182;7.650;2023-12-20T12:16:38;4.10;;;1.50;;
12703;SDS011;6416;52.182;7.650;2023-12-20T12:19:04;3.63;;;1.20;;
12703;SDS011;6416;52.182;7.650;2023-12-20T12:21:29;4.10;;;1.20;;
12703;SDS011;6416;52.182;7.650;2023-12-20T12:24:05;3.20;;;1.30;;
12703;SDS011;6416;52.182;7.650;2023-12-20T12:26:32;2.00;;;1.20;;
12703;SDS011;6416;52.182;7.650;2023-12-20T12:28:57;2.57;;;1.10;;
12703;SDS011;6416;52.182;7.650;2023-12-20T12:31:22;3.63;;;1.80;;
12703;SDS011;6416;52.182;7.650;2023-12-20T12:33:48;4.10;;;1.10;;
12703;SDS011;6416;52.182;7.650;2023-12-20T12:36:13;2.67;;;1.10;;
12703;SDS011;6416;52.182;7.650;2023-12-20T12:38:41;3.33;;;1.17;;
12703;SDS011;6416;52.182;7.650;2023-12-20T12:41:06;4.00;;;1.40;;
12703;SDS011;6416;52.182;7.650;2023-12-20T12:43:32;3.00;;;1.40;;
12703;SDS011;6416;52.182;7.650;2023-12-20T12:45:57;2.87;;;1.50;;
12703;SDS011;6416;52.182;7.650;2023-12-20T12:48:23;4.60;;;1.60;;
12703;SDS011;6416;52.182;7.650;2023-12-20T12:50:48;4.23;;;1.60;;
12703;SDS011;6416;52.182;7.650;2023-12-20T12:53:14;3.10;;;1.53;;
12703;SDS011;6416;52.182;7.650;2023-12-20T12:55:39;4.77;;;1.80;;
12703;SDS011;6416;52.182;7.650;2023-12-20T12:58:05;3.37;;;1.30;;
12703;SDS011;6416;52.182;7.650;2023-12-20T13:00:30;3.00;;;1.10;;
12703;SDS011;6416;52.182;7.650;2023-12-20T13:02:55;2.90;;;1.20;;
12703;SDS011;6416;52.182;7.650;2023-12-20T13:05:21;4.67;;;1.50;;
12703;SDS011;6416;52.182;7.650;2023-12-20T13:07:49;2.87;;;1.20;;
12703;SDS011;6416;52.182;7.650;2023-12-20T13:10:14;3.33;;;1.37;;
12703;SDS011;6416;52.182;7.650;2023-12-20T13:12:40;6.40;;;1.73;;
12703;SDS011;6416;52.182;7.650;2023-12-20T13:15:06;3.17;;;1.40;;
12703;SDS011;6416;52.182;7.650;2023-12-20T13:17:31;4.50;;;1.37;;
12703;SDS011;6416;52.182;7.650;2023-12-20T13:19:57;2.17;;;1.37;;
12703;SDS011;6416;52.182;7.650;2023-12-20T13:22:22;3.70;;;1.50;;
12703;SDS011;6416;52.182;7.650;2023-12-20T13:24:48;4.83;;;1.87;;
12703;SDS011;6416;52.182;7.650;2023-12-20T13:27:13;5.73;;;2.10;;
12703;SDS011;6416;52.182;7.650;2023-12-20T13:29:39;4.13;;;2.17;;
12703;SDS011;6416;52.182;7.650;2023-12-20T13:32:04;6.07;;;2.40;;
12703;SDS011;6416;52.182;7.650;2023-12-20T13:34:30;4.37;;;2.30;;
12703;SDS011;6416;52.182;7.650;2023-12-20T13:36:56;3.37;;;2.00;;
12703;SDS011;6416;52.182;7.650;2023-12-20T13:39:21;4.90;;;1.80;;
12703;SDS011;6416;52.182;7.650;2023-12-20T13:41:47;3.07;;;1.30;;
12703;SDS011;6416;52.182;7.650;2023-12-20T13:44:12;3.37;;;1.30;;
12703;SDS011;6416;52.182;7.650;2023-12-20T13:46:38;4.67;;;1.33;;
12703;SDS011;6416;52.182;7.650;2023-12-20T13:49:03;3.37;;;1.60;;
12703;SDS011;6416;52.182;7.650;2023-12-20T13:51:29;2.07;;;1.23;;
12703;SDS011;6416;52.182;7.650;2023-12-20T13:53:54;2.60;;;1.10;;
12703;SDS011;6416;52.182;7.650;2023-12-20T13:56:20;2.57;;;1.17;;
12703;SDS011;6416;52.182;7.650;2023-12-20T13:58:45;3.43;;;1.47;;
12703;SDS011;6416;52.182;7.650;2023-12-20T14:01:11;5.30;;;1.70;;
12703;SDS011;6416;52.182;7.650;2023-12-20T14:03:36;4.73;;;1.33;;
12703;SDS011;6416;52.182;7.650;2023-12-20T14:06:02;3.83;;;1.50;;
12703;SDS011;6416;52.182;7.650;2023-12-20T14:08:28;7.07;;;1.70;;
12703;SDS011;6416;52.182;7.650;2023-12-20T14:10:53;3.70;;;1.50;;
12703;SDS011;6416;52.182;7.650;2023-12-20T14:13:18;3.20;;;1.60;;
12703;SDS011;6416;52.182;7.650;2023-12-20T14:15:44;5.67;;;1.93;;
12703;SDS011;6416;52.182;7.650;2023-12-20T14:18:10;2.80;;;1.50;;
12703;SDS011;6416;52.182;7.650;2023-12-20T14:20:35;3.47;;;1.40;;
12703;SDS011;6416;52.182;7.650;2023-12-20T14:23:01;3.47;;;1.50;;
12703;SDS011;6416;52.182;7.650;2023-12-20T14:25:28;3.73;;;1.80;;
12703;SDS011;6416;52.182;7.650;2023-12-20T14:27:54;4.30;;;1.50;;
12703;SDS011;6416;52.182;7.650;2023-12-20T14:30:19;5.90;;;2.27;;
12703;SDS011;6416;52.182;7.650;2023-12-20T14:32:45;3.87;;;1.80;;
12703;SDS011;6416;52.182;7.650;2023-12-20T14:35:10;5.07;;;1.93;;
12703;SDS011;6416;52.182;7.650;2023-12-20T14:37:36;4.20;;;1.63;;
12703;SDS011;6416;52.182;7.650;2023-12-20T14:40:01;3.97;;;1.87;;
12703;SDS011;6416;52.182;7.650;2023-12-20T14:42:27;4.00;;;2.00;;
12703;SDS011;6416;52.182;7.650;2023-12-20T14:44:52;4.07;;;2.00;;
12703;SDS011;6416;52.182;7.650;2023-12-20T14:47:21;7.73;;;2.70;;
12703;SDS011;6416;52.182;7.650;2023-12-20T14:49:46;5.03;;;2.20;;
12703;SDS011;6416;52.182;7.650;2023-12-20T14:52:12;7.60;;;2.80;;
12703;SDS011;6416;52.182;7.650;2023-12-20T14:54:37;3.80;;;2.17;;